Time;durP1;ratioP1;P1;durP2;ratioP2;P2;SDS_P1;SDS_P2;PMS_P1;PMS_P2;Temp;Humidity;BMP_temperature;BMP_pressure;BME280_temperature;BME280_humidity;BME280_pressure;Samples;Min_cycle;Max_cycle;Signal;HPM_P1;HPM_P2
2022/08/31 00:04:04;;;;;;;3.22;2.92;;;;;;;;;;5058873;28;20033;-68
2022/08/31 00:06:32;;;;;;;4.30;3.03;;;;;;;;;;5058951;28;20053;-68
2022/08/31 00:09:00;;;;;;;6.88;3.47;;;;;;;;;;5058449;28;20026;-68
2022/08/31 00:11:28;;;;;;;5.40;2.95;;;;;;;;;;5058561;28;20029;-68
2022/08/31 00:13:57;;;;;;;5.20;3.63;;;;;;;;;;5058670;28;20029;-68
2022/08/31 00:16:26;;;;;;;3.78;3.30;;;;;;;;;;5058687;28;20033;-67
2022/08/31 00:18:53;;;;;;;4.20;3.55;;;;;;;;;;5058301;28;20060;-67
2022/08/31 00:21:22;;;;;;;6.95;3.30;;;;;;;;;;5058641;28;20084;-66
2022/08/31 00:23:48;;;;;;;5.60;3.47;;;;;;;;;;5058367;28;20061;-67
2022/08/31 00:26:15;;;;;;;6.15;4.03;;;;;;;;;;5029879;28;20056;-69
2022/08/31 00:28:42;;;;;;;4.10;3.60;;;;;;;;;;5034342;28;20543;-69
2022/08/31 00:31:11;;;;;;;6.03;3.70;;;;;;;;;;5034336;28;20049;-69
2022/08/31 00:33:39;;;;;;;4.63;3.40;;;;;;;;;;5034625;28;20083;-69
2022/08/31 00:36:09;;;;;;;5.43;3.22;;;;;;;;;;5034017;28;20053;-68
2022/08/31 00:38:36;;;;;;;3.50;3.10;;;;;;;;;;5034319;28;20107;-68
2022/08/31 00:41:03;;;;;;;6.65;3.63;;;;;;;;;;5033898;28;20064;-68
2022/08/31 00:43:37;;;;;;;4.93;3.13;;;;;;;;;;5033848;28;20053;-68
2022/08/31 00:46:04;;;;;;;3.80;3.13;;;;;;;;;;5033969;28;20045;-69
2022/08/31 00:48:31;;;;;;;4.53;3.47;;;;;;;;;;5033578;28;20068;-68
2022/08/31 00:50:58;;;;;;;6.32;3.85;;;;;;;;;;5015965;28;20049;-69
2022/08/31 00:53:25;;;;;;;7.53;4.13;;;;;;;;;;5016393;28;20119;-67
2022/08/31 00:55:51;;;;;;;7.30;3.60;;;;;;;;;;5016159;28;20091;-68
2022/08/31 00:58:18;;;;;;;5.50;3.58;;;;;;;;;;5015899;28;20049;-68
2022/08/31 01:00:45;;;;;;;4.38;3.17;;;;;;;;;;5015553;28;20049;-68
2022/08/31 01:03:11;;;;;;;5.10;3.20;;;;;;;;;;5033558;28;20130;-68
2022/08/31 01:05:38;;;;;;;10.23;3.80;;;;;;;;;;5033271;28;20049;-67
2022/08/31 01:08:05;;;;;;;6.00;3.72;;;;;;;;;;5015271;28;20099;-67
2022/08/31 01:10:35;;;;;;;5.80;3.80;;;;;;;;;;5015197;28;20489;-68
2022/08/31 01:13:02;;;;;;;6.60;4.13;;;;;;;;;;5033182;28;20103;-67
2022/08/31 01:15:29;;;;;;;7.10;4.38;;;;;;;;;;5032902;28;20060;-68
2022/08/31 01:17:58;;;;;;;6.10;4.95;;;;;;;;;;4999111;28;20053;-67
2022/08/31 01:20:52;;;;;;;6.20;5.32;;;;;;;;;;5014974;28;20140;-68
2022/08/31 01:23:24;;;;;;;6.90;5.07;;;;;;;;;;5032784;28;20049;-67
2022/08/31 01:25:51;;;;;;;6.90;5.53;;;;;;;;;;4999626;28;20501;-68
2022/08/31 01:28:18;;;;;;;7.93;5.43;;;;;;;;;;4998932;28;20103;-68
2022/08/31 01:31:06;;;;;;;7.32;5.28;;;;;;;;;;5032388;28;20412;-67
2022/08/31 01:33:34;;;;;;;7.30;5.93;;;;;;;;;;5032763;28;20061;-68
2022/08/31 01:36:01;;;;;;;5.88;5.30;;;;;;;;;;5032563;28;20060;-68
2022/08/31 01:38:28;;;;;;;8.10;5.78;;;;;;;;;;5032328;28;20122;-68
2022/08/31 01:40:57;;;;;;;6.63;5.38;;;;;;;;;;5014759;28;20597;-67
2022/08/31 01:43:24;;;;;;;7.15;5.75;;;;;;;;;;5032138;28;20045;-68
2022/08/31 01:45:51;;;;;;;7.15;5.30;;;;;;;;;;5032252;28;20045;-68
2022/08/31 01:48:18;;;;;;;12.52;5.70;;;;;;;;;;5032585;28;20054;-68
2022/08/31 01:50:44;;;;;;;9.50;5.70;;;;;;;;;;5031944;28;20050;-68
2022/08/31 01:53:12;;;;;;;7.30;5.57;;;;;;;;;;5032073;28;20136;-68
2022/08/31 01:55:38;;;;;;;6.40;5.05;;;;;;;;;;5032509;28;20148;-68
2022/08/31 01:58:05;;;;;;;6.40;5.53;;;;;;;;;;5014720;28;20045;-68
2022/08/31 02:00:33;;;;;;;8.82;6.03;;;;;;;;;;5031869;28;20394;-68
2022/08/31 02:03:00;;;;;;;7.88;5.32;;;;;;;;;;5017680;28;20503;-69
2022/08/31 02:05:28;;;;;;;6.68;5.22;;;;;;;;;;5035798;28;20045;-68
2022/08/31 02:07:55;;;;;;;7.93;5.57;;;;;;;;;;5035817;28;20053;-68
2022/08/31 02:10:22;;;;;;;7.25;5.57;;;;;;;;;;5035627;28;20049;-67
2022/08/31 02:12:49;;;;;;;6.18;5.63;;;;;;;;;;5035581;28;20060;-68
2022/08/31 02:15:16;;;;;;;6.07;5.45;;;;;;;;;;5035946;28;20052;-68
2022/08/31 02:17:43;;;;;;;8.38;5.55;;;;;;;;;;5035786;28;20049;-68
2022/08/31 02:20:10;;;;;;;9.15;6.25;;;;;;;;;;5035557;28;20397;-68
2022/08/31 02:22:36;;;;;;;6.50;5.05;;;;;;;;;;5035483;28;20061;-68
2022/08/31 02:25:04;;;;;;;7.82;5.22;;;;;;;;;;5035427;28;20046;-68
2022/08/31 02:27:35;;;;;;;6.18;5.57;;;;;;;;;;5035466;28;20456;-68
2022/08/31 02:30:07;;;;;;;6.70;5.65;;;;;;;;;;5035194;28;20059;-68
2022/08/31 02:32:34;;;;;;;9.20;5.70;;;;;;;;;;5035460;28;20045;-68
2022/08/31 02:35:01;;;;;;;9.07;5.55;;;;;;;;;;5035435;28;20292;-67
2022/08/31 02:37:27;;;;;;;6.13;4.88;;;;;;;;;;5035372;28;20444;-67
2022/08/31 02:39:54;;;;;;;6.15;5.38;;;;;;;;;;5034879;28;20478;-68
2022/08/31 02:42:21;;;;;;;10.63;5.90;;;;;;;;;;5035457;28;20045;-68
2022/08/31 02:44:48;;;;;;;6.22;5.70;;;;;;;;;;5039144;28;20061;-68
2022/08/31 02:47:15;;;;;;;10.55;6.38;;;;;;;;;;5039332;28;20059;-68
2022/08/31 02:49:42;;;;;;;5.82;5.18;;;;;;;;;;5038450;28;20045;-68
2022/08/31 02:52:08;;;;;;;6.10;5.47;;;;;;;;;;5039145;28;20060;-68
2022/08/31 02:54:35;;;;;;;6.28;5.57;;;;;;;;;;5040447;28;20113;-67
2022/08/31 02:57:02;;;;;;;6.35;5.38;;;;;;;;;;5039107;28;20046;-68
2022/08/31 02:59:28;;;;;;;6.70;5.80;;;;;;;;;;5019018;28;20060;-68
2022/08/31 03:01:55;;;;;;;10.68;5.50;;;;;;;;;;5047824;28;20052;-68
2022/08/31 03:04:22;;;;;;;7.82;5.43;;;;;;;;;;5041544;28;20386;-68
2022/08/31 03:06:49;;;;;;;9.80;6.10;;;;;;;;;;5035001;28;20050;-68
2022/08/31 03:09:15;;;;;;;6.05;5.13;;;;;;;;;;5034883;28;20170;-68
2022/08/31 03:11:42;;;;;;;9.07;6.55;;;;;;;;;;5034795;28;20049;-68
2022/08/31 03:14:09;;;;;;;11.18;5.97;;;;;;;;;;5034436;28;20523;-68
2022/08/31 03:20:17;;;;;;;10.20;5.72;;;;;;;;;;5035048;28;20059;-68
2022/08/31 03:22:44;;;;;;;8.68;5.72;;;;;;;;;;5017068;28;20054;-68
2022/08/31 03:25:11;;;;;;;10.55;5.63;;;;;;;;;;5034581;28;20128;-69
2022/08/31 03:27:39;;;;;;;8.38;6.10;;;;;;;;;;5034481;28;20341;-69
2022/08/31 03:30:09;;;;;;;5.90;5.30;;;;;;;;;;5033974;28;20080;-68
2022/08/31 03:32:36;;;;;;;8.80;5.97;;;;;;;;;;5016792;28;20428;-69
2022/08/31 03:35:03;;;;;;;6.15;5.53;;;;;;;;;;5034147;28;20140;-68
2022/08/31 03:37:30;;;;;;;8.15;5.75;;;;;;;;;;5034422;28;20064;-69
2022/08/31 03:39:57;;;;;;;7.32;5.40;;;;;;;;;;5033854;28;20053;-68
2022/08/31 03:42:24;;;;;;;8.20;5.30;;;;;;;;;;5033915;28;20049;-69
2022/08/31 03:44:53;;;;;;;8.20;5.93;;;;;;;;;;5034306;28;20056;-68
2022/08/31 03:47:20;;;;;;;8.55;6.18;;;;;;;;;;5034248;28;20053;-69
2022/08/31 03:49:49;;;;;;;9.75;5.72;;;;;;;;;;5033254;28;20141;-68
2022/08/31 03:52:15;;;;;;;8.82;5.70;;;;;;;;;;5033244;28;20049;-69
2022/08/31 03:54:42;;;;;;;5.97;5.03;;;;;;;;;;5033659;28;20122;-69
2022/08/31 03:57:09;;;;;;;10.20;5.70;;;;;;;;;;5033437;28;20049;-69
2022/08/31 03:59:36;;;;;;;10.50;6.43;;;;;;;;;;5015864;28;20045;-69
2022/08/31 04:02:02;;;;;;;7.30;5.78;;;;;;;;;;5033499;28;20045;-69
2022/08/31 04:04:29;;;;;;;7.93;5.75;;;;;;;;;;5033507;28;20045;-69
2022/08/31 04:06:56;;;;;;;7.30;5.45;;;;;;;;;;5034215;28;20049;-68
2022/08/31 04:09:22;;;;;;;6.68;6.00;;;;;;;;;;5015613;28;20420;-68
2022/08/31 04:11:49;;;;;;;6.18;5.57;;;;;;;;;;5033183;28;20041;-68
2022/08/31 04:14:17;;;;;;;7.80;5.75;;;;;;;;;;5033613;28;20045;-69
2022/08/31 04:16:44;;;;;;;8.88;5.60;;;;;;;;;;5033386;28;20489;-69
2022/08/31 04:19:14;;;;;;;7.10;6.20;;;;;;;;;;5015565;28;20057;-69
2022/08/31 04:21:42;;;;;;;5.95;5.35;;;;;;;;;;5033179;28;20041;-69
2022/08/31 04:24:10;;;;;;;7.43;6.07;;;;;;;;;;5032452;28;20049;-69
2022/08/31 04:26:39;;;;;;;6.00;5.32;;;;;;;;;;5015604;28;20054;-67
2022/08/31 04:29:07;;;;;;;9.02;5.80;;;;;;;;;;5033072;28;20049;-69
2022/08/31 04:31:38;;;;;;;7.40;6.32;;;;;;;;;;5033497;28;20049;-68
2022/08/31 04:34:05;;;;;;;8.25;6.05;;;;;;;;;;5032767;28;20516;-68
2022/08/31 04:36:32;;;;;;;7.75;5.72;;;;;;;;;;5015314;28;20056;-68
2022/08/31 04:39:00;;;;;;;6.95;6.20;;;;;;;;;;5032591;28;20519;-69
2022/08/31 04:41:28;;;;;;;7.88;5.70;;;;;;;;;;5014917;28;20053;-69
2022/08/31 04:43:56;;;;;;;8.82;6.72;;;;;;;;;;5015164;28;20053;-69
2022/08/31 04:46:23;;;;;;;7.68;5.88;;;;;;;;;;5032444;28;20050;-69
2022/08/31 04:48:50;;;;;;;7.18;5.28;;;;;;;;;;5032405;28;20571;-68
2022/08/31 04:51:22;;;;;;;12.15;5.82;;;;;;;;;;5032706;28;20049;-69
2022/08/31 04:53:49;;;;;;;11.10;6.37;;;;;;;;;;5032625;28;20424;-69
2022/08/31 04:56:19;;;;;;;7.43;6.18;;;;;;;;;;5032598;28;20554;-68
2022/08/31 04:58:48;;;;;;;7.32;6.25;;;;;;;;;;5032603;28;20459;-69
2022/08/31 05:01:17;;;;;;;7.35;5.57;;;;;;;;;;5032367;28;20059;-68
2022/08/31 05:03:44;;;;;;;7.30;6.00;;;;;;;;;;5032446;28;20045;-69
2022/08/31 05:06:14;;;;;;;8.60;5.72;;;;;;;;;;5032599;28;20184;-68
2022/08/31 05:08:41;;;;;;;7.07;5.45;;;;;;;;;;5032590;28;20075;-69
2022/08/31 05:11:14;;;;;;;5.63;5.05;;;;;;;;;;5032078;28;20236;-68
2022/08/31 05:13:41;;;;;;;6.88;5.90;;;;;;;;;;5032510;28;20511;-68
2022/08/31 05:16:09;;;;;;;9.25;5.53;;;;;;;;;;5032572;28;20055;-68
2022/08/31 05:18:40;;;;;;;7.82;5.38;;;;;;;;;;5032346;28;20053;-68
2022/08/31 05:21:27;;;;;;;6.75;6.07;;;;;;;;;;5032203;28;20049;-69
2022/08/31 05:24:08;;;;;;;6.25;5.53;;;;;;;;;;5017526;28;20050;-68
2022/08/31 05:26:38;;;;;;;10.32;6.18;;;;;;;;;;5032284;28;20535;-69
2022/08/31 05:29:07;;;;;;;;;;;;;;;;;;5015839;28;20195;-68
2022/08/31 05:31:35;;;;;;;8.30;6.50;;;;;;;;;;5032092;28;19921;-69
2022/08/31 05:34:02;;;;;;;8.52;6.72;;;;;;;;;;5032464;28;20107;-69
2022/08/31 05:36:29;;;;;;;7.40;6.32;;;;;;;;;;5033138;28;20056;-67
2022/08/31 05:38:57;;;;;;;11.07;7.30;;;;;;;;;;5036039;28;20061;-68
2022/08/31 05:41:27;;;;;;;8.60;6.07;;;;;;;;;;5036337;28;20049;-69
2022/08/31 05:43:54;;;;;;;7.35;6.07;;;;;;;;;;5036501;28;20056;-69
2022/08/31 05:46:21;;;;;;;7.50;6.72;;;;;;;;;;5036090;28;20053;-68
2022/08/31 05:48:47;;;;;;;8.40;6.70;;;;;;;;;;5035815;28;20049;-68
2022/08/31 05:51:16;;;;;;;8.43;6.97;;;;;;;;;;5018694;28;20064;-68
2022/08/31 05:53:43;;;;;;;8.05;6.57;;;;;;;;;;5036205;28;20136;-69
2022/08/31 05:56:13;;;;;;;8.75;6.57;;;;;;;;;;5035936;28;20471;-68
2022/08/31 05:58:41;;;;;;;11.85;7.25;;;;;;;;;;5035660;28;20053;-69
2022/08/31 06:01:17;;;;;;;10.63;6.45;;;;;;;;;;5035705;28;20088;-69
2022/08/31 06:03:44;;;;;;;7.60;6.57;;;;;;;;;;5035879;28;20057;-68
2022/08/31 06:06:12;;;;;;;9.13;6.25;;;;;;;;;;5035576;28;20060;-69
2022/08/31 06:08:38;;;;;;;11.65;6.90;;;;;;;;;;5035715;28;20060;-68
2022/08/31 06:11:06;;;;;;;7.75;6.90;;;;;;;;;;5035248;28;20516;-69
2022/08/31 06:13:33;;;;;;;7.90;7.10;;;;;;;;;;5035612;28;20050;-69
2022/08/31 06:16:01;;;;;;;8.60;6.00;;;;;;;;;;5035391;28;20053;-67
2022/08/31 06:18:27;;;;;;;7.90;6.88;;;;;;;;;;5035436;28;20077;-69
2022/08/31 06:21:07;;;;;;;10.55;7.25;;;;;;;;;;5035421;28;20053;-69
2022/08/31 06:23:38;;;;;;;8.30;6.30;;;;;;;;;;5035655;28;20473;-69
2022/08/31 06:26:06;;;;;;;10.55;7.53;;;;;;;;;;5018028;28;20497;-69
2022/08/31 06:28:33;;;;;;;8.68;6.95;;;;;;;;;;5001542;28;20049;-69
2022/08/31 06:31:01;;;;;;;7.80;6.90;;;;;;;;;;5035314;28;20612;-69
2022/08/31 06:33:28;;;;;;;10.30;6.78;;;;;;;;;;5035147;28;20501;-69
2022/08/31 06:35:55;;;;;;;8.57;6.53;;;;;;;;;;5035259;28;20055;-68
2022/08/31 06:38:23;;;;;;;10.50;7.10;;;;;;;;;;5035086;28;20475;-69
2022/08/31 06:40:50;;;;;;;10.43;6.78;;;;;;;;;;5034953;28;20049;-69
2022/08/31 06:43:17;;;;;;;9.02;7.10;;;;;;;;;;5034922;28;20041;-68
2022/08/31 06:45:44;;;;;;;7.93;6.65;;;;;;;;;;5034730;28;20072;-69
2022/08/31 06:48:10;;;;;;;7.43;6.07;;;;;;;;;;5034171;28;20053;-68
2022/08/31 06:50:40;;;;;;;8.98;6.78;;;;;;;;;;5034957;28;20049;-68
2022/08/31 06:53:06;;;;;;;6.20;5.50;;;;;;;;;;5034800;28;20057;-69
2022/08/31 06:55:34;;;;;;;7.70;6.00;;;;;;;;;;5034905;28;20467;-68
2022/08/31 06:58:01;;;;;;;6.45;5.20;;;;;;;;;;5034661;28;20136;-69
2022/08/31 07:00:29;;;;;;;6.80;5.07;;;;;;;;;;5034635;28;20064;-69
2022/08/31 07:02:56;;;;;;;6.47;5.05;;;;;;;;;;5035109;28;20120;-69
2022/08/31 07:05:23;;;;;;;5.72;4.80;;;;;;;;;;5034729;28;20045;-68
2022/08/31 07:07:50;;;;;;;5.35;4.85;;;;;;;;;;5034481;28;20416;-69
2022/08/31 07:10:18;;;;;;;8.32;5.03;;;;;;;;;;5034585;28;20049;-69
2022/08/31 07:12:44;;;;;;;6.13;5.18;;;;;;;;;;5034390;28;20045;-69
2022/08/31 07:15:11;;;;;;;6.90;4.60;;;;;;;;;;5034447;28;20061;-68
2022/08/31 07:17:38;;;;;;;6.35;4.47;;;;;;;;;;5034563;28;20056;-68
2022/08/31 07:20:05;;;;;;;7.10;4.45;;;;;;;;;;5034703;28;20054;-68
2022/08/31 07:22:31;;;;;;;6.75;3.65;;;;;;;;;;5034324;28;20041;-68
2022/08/31 07:24:58;;;;;;;5.15;3.63;;;;;;;;;;5034557;28;20524;-68
2022/08/31 07:27:25;;;;;;;6.43;3.72;;;;;;;;;;5017099;28;20060;-69
2022/08/31 07:29:51;;;;;;;8.73;3.92;;;;;;;;;;5034285;28;20088;-67
2022/08/31 07:32:18;;;;;;;4.30;3.53;;;;;;;;;;5034056;28;20056;-68
2022/08/31 07:34:45;;;;;;;5.07;4.07;;;;;;;;;;5034182;28;20049;-69
2022/08/31 07:42:43;;;;;;;6.05;4.20;;;;;;;;;;5034073;28;20049;-68
2022/08/31 07:45:18;;;;;;;6.10;4.53;;;;;;;;;;5033942;28;20064;-67
2022/08/31 07:47:49;;;;;;;7.05;4.32;;;;;;;;;;5033935;28;20058;-68
2022/08/31 07:50:16;;;;;;;5.10;4.00;;;;;;;;;;5016104;28;20060;-69
2022/08/31 07:52:47;;;;;;;5.00;4.50;;;;;;;;;;5033526;28;20049;-69
2022/08/31 07:55:15;;;;;;;6.10;4.65;;;;;;;;;;5016867;28;20046;-69
2022/08/31 07:57:43;;;;;;;6.63;4.22;;;;;;;;;;5033917;28;20057;-69
2022/08/31 08:00:14;;;;;;;10.07;4.50;;;;;;;;;;5032677;28;20050;-69
2022/08/31 08:02:45;;;;;;;6.30;4.70;;;;;;;;;;5033512;28;20057;-69
2022/08/31 08:05:21;;;;;;;6.03;4.20;;;;;;;;;;5033509;28;20522;-69
2022/08/31 08:07:56;;;;;;;7.22;4.53;;;;;;;;;;5017138;28;20452;-68
2022/08/31 08:10:23;;;;;;;6.22;4.35;;;;;;;;;;5033351;28;20056;-68
2022/08/31 08:12:57;;;;;;;8.75;4.38;;;;;;;;;;5033222;28;20515;-69
2022/08/31 08:15:25;;;;;;;7.25;4.60;;;;;;;;;;5033383;28;20049;-70
2022/08/31 08:17:51;;;;;;;7.85;3.95;;;;;;;;;;5015857;28;20053;-69
2022/08/31 08:20:19;;;;;;;6.40;3.70;;;;;;;;;;5033439;28;20076;-69
2022/08/31 08:23:10;;;;;;;6.45;4.10;;;;;;;;;;5033702;28;20073;-69
2022/08/31 08:25:39;;;;;;;5.95;4.22;;;;;;;;;;5033144;28;20464;-69
2022/08/31 08:28:08;;;;;;;6.38;4.80;;;;;;;;;;5033397;28;20085;-68
2022/08/31 08:30:59;;;;;;;8.30;4.93;;;;;;;;;;5033407;28;20416;-69
2022/08/31 08:33:27;;;;;;;6.97;4.00;;;;;;;;;;5033147;28;20046;-68
2022/08/31 08:35:59;;;;;;;5.00;4.10;;;;;;;;;;5032994;28;20496;-69
2022/08/31 08:38:29;;;;;;;6.05;3.97;;;;;;;;;;5015148;28;20100;-68
2022/08/31 08:41:01;;;;;;;9.90;5.25;;;;;;;;;;5033158;28;20056;-69
2022/08/31 08:43:33;;;;;;;6.18;4.80;;;;;;;;;;5032976;28;20504;-69
2022/08/31 08:46:01;;;;;;;6.25;4.63;;;;;;;;;;5016201;28;20056;-69
2022/08/31 08:48:50;;;;;;;5.72;4.40;;;;;;;;;;5018434;28;20053;-70
2022/08/31 08:51:23;;;;;;;7.53;4.60;;;;;;;;;;5016545;28;20057;-69
2022/08/31 08:53:51;;;;;;;4.55;4.15;;;;;;;;;;4999560;28;20042;-69
2022/08/31 08:56:19;;;;;;;7.20;4.47;;;;;;;;;;4999411;28;20054;-69
2022/08/31 08:58:59;;;;;;;4.78;4.30;;;;;;;;;;5032371;28;20083;-69
2022/08/31 09:01:27;;;;;;;5.97;4.40;;;;;;;;;;5015331;28;20046;-68
2022/08/31 09:03:58;;;;;;;6.90;3.97;;;;;;;;;;5032664;28;20045;-69
2022/08/31 09:06:53;;;;;;;5.57;4.45;;;;;;;;;;5014879;28;20049;-69
2022/08/31 09:09:33;;;;;;;6.35;4.15;;;;;;;;;;5015778;28;20060;-68
2022/08/31 09:12:45;;;;;;;7.50;4.47;;;;;;;;;;5032474;28;20049;-68
2022/08/31 09:15:35;;;;;;;7.60;4.65;;;;;;;;;;5030278;28;20049;-69
2022/08/31 09:18:23;;;;;;;5.07;4.20;;;;;;;;;;5032650;28;20103;-68
2022/08/31 09:21:24;;;;;;;5.18;4.07;;;;;;;;;;5032505;28;20057;-67
2022/08/31 09:23:54;;;;;;;7.82;4.28;;;;;;;;;;5032642;28;20050;-66
2022/08/31 09:26:24;;;;;;;7.72;4.60;;;;;;;;;;4998643;28;20530;-66
2022/08/31 09:28:51;;;;;;;5.97;4.20;;;;;;;;;;5031904;28;20463;-67
2022/08/31 09:31:36;;;;;;;6.15;4.18;;;;;;;;;;5032164;28;20049;-68
2022/08/31 09:34:11;;;;;;;6.80;3.78;;;;;;;;;;5031923;28;20056;-67
2022/08/31 09:36:42;;;;;;;6.78;4.05;;;;;;;;;;5015673;28;20050;-67
2022/08/31 09:39:19;;;;;;;4.82;4.35;;;;;;;;;;5014472;28;20065;-64
2022/08/31 09:41:46;;;;;;;7.68;4.47;;;;;;;;;;5031824;28;20053;-65
2022/08/31 09:44:30;;;;;;;7.85;4.43;;;;;;;;;;5014805;28;20049;-65
2022/08/31 09:47:02;;;;;;;4.95;4.30;;;;;;;;;;5031788;28;20053;-64
2022/08/31 09:49:33;;;;;;;6.82;4.32;;;;;;;;;;5015145;28;20056;-65
2022/08/31 09:55:20;;;;;;;6.00;3.58;;;;;;;;;;5025506;28;20389;-66
2022/08/31 09:58:01;;;;;;;;;;;;;;;;;;5032255;28;20068;-70
2022/08/31 10:00:38;;;;;;;7.57;4.47;;;;;;;;;;5031806;28;19921;-65
2022/08/31 10:03:15;;;;;;;6.10;4.35;;;;;;;;;;4998855;28;20101;-66
2022/08/31 10:05:43;;;;;;;9.32;4.25;;;;;;;;;;5014725;28;20554;-65
2022/08/31 10:08:12;;;;;;;4.60;4.20;;;;;;;;;;5031830;28;20084;-66
2022/08/31 10:10:45;;;;;;;5.57;4.53;;;;;;;;;;5031874;28;20049;-66
2022/08/31 10:13:16;;;;;;;7.57;4.50;;;;;;;;;;4998219;28;20421;-66
2022/08/31 10:16:01;;;;;;;11.05;5.03;;;;;;;;;;5014481;28;20420;-66
2022/08/31 10:18:50;;;;;;;7.13;4.60;;;;;;;;;;4999025;28;20046;-66
2022/08/31 10:21:20;;;;;;;6.20;4.60;;;;;;;;;;5017463;28;20056;-65
2022/08/31 10:23:53;;;;;;;7.18;4.90;;;;;;;;;;5017091;28;20049;-65
2022/08/31 10:26:28;;;;;;;7.75;4.72;;;;;;;;;;5035168;28;20053;-66
2022/08/31 10:28:54;;;;;;;7.13;4.78;;;;;;;;;;5002663;28;20057;-66
2022/08/31 10:31:28;;;;;;;10.65;4.45;;;;;;;;;;5001650;28;20552;-66
2022/08/31 10:36:48;;;;;;;9.25;4.65;;;;;;;;;;5007347;28;20481;-66
2022/08/31 10:39:19;;;;;;;9.18;4.80;;;;;;;;;;5001617;28;20064;-66
2022/08/31 10:41:47;;;;;;;4.80;4.30;;;;;;;;;;5018135;28;20079;-65
2022/08/31 10:44:25;;;;;;;7.50;4.95;;;;;;;;;;5034988;28;20042;-66
2022/08/31 10:46:56;;;;;;;8.55;4.88;;;;;;;;;;5003123;28;20057;-66
2022/08/31 10:49:23;;;;;;;7.75;4.32;;;;;;;;;;5017997;28;20463;-66
2022/08/31 10:52:14;;;;;;;8.95;4.68;;;;;;;;;;5017474;28;20052;-66
2022/08/31 10:55:04;;;;;;;6.25;3.85;;;;;;;;;;5034928;28;20058;-66
2022/08/31 10:57:42;;;;;;;7.13;4.80;;;;;;;;;;5034966;28;20053;-66
2022/08/31 11:03:16;;;;;;;8.13;5.38;;;;;;;;;;5006898;28;20542;-66
2022/08/31 11:06:05;;;;;;;6.32;5.13;;;;;;;;;;5034703;28;20060;-66
2022/08/31 11:08:52;;;;;;;5.28;4.75;;;;;;;;;;5019666;28;20057;-66
2022/08/31 11:11:32;;;;;;;6.57;4.68;;;;;;;;;;5034599;28;20409;-65
2022/08/31 11:14:31;;;;;;;7.90;5.28;;;;;;;;;;5017855;28;20053;-68
2022/08/31 11:17:19;;;;;;;6.10;5.50;;;;;;;;;;5034677;28;20057;-66
2022/08/31 11:20:18;;;;;;;8.07;5.97;;;;;;;;;;5034232;28;20046;-68
2022/08/31 11:23:12;;;;;;;9.68;5.93;;;;;;;;;;5034159;28;20096;-66
2022/08/31 11:26:04;;;;;;;8.63;5.68;;;;;;;;;;5034162;28;20050;-68
2022/08/31 11:28:36;;;;;;;7.30;6.22;;;;;;;;;;5019213;28;20050;-66
2022/08/31 11:31:22;;;;;;;9.75;6.22;;;;;;;;;;5034001;28;20053;-66
2022/08/31 11:33:52;;;;;;;9.73;6.28;;;;;;;;;;5017251;28;20096;-67
2022/08/31 11:36:48;;;;;;;8.05;5.88;;;;;;;;;;5006668;28;20420;-67
2022/08/31 11:39:25;;;;;;;11.88;6.10;;;;;;;;;;5033694;28;20481;-65
2022/08/31 11:41:53;;;;;;;8.25;6.47;;;;;;;;;;5033885;28;20444;-66
2022/08/31 11:44:28;;;;;;;8.27;6.50;;;;;;;;;;5000314;28;20054;-66
2022/08/31 11:47:33;;;;;;;11.73;6.03;;;;;;;;;;5033906;28;20049;-68
2022/08/31 11:50:03;;;;;;;9.05;6.63;;;;;;;;;;5019158;28;20483;-66
2022/08/31 11:52:42;;;;;;;10.02;6.78;;;;;;;;;;5033552;28;20049;-66
2022/08/31 11:55:45;;;;;;;9.80;6.93;;;;;;;;;;5016255;28;20057;-65
2022/08/31 11:58:24;;;;;;;10.27;6.97;;;;;;;;;;5013190;28;20059;-66
2022/08/31 12:00:57;;;;;;;14.60;7.53;;;;;;;;;;5001230;28;20057;-66
2022/08/31 12:04:02;;;;;;;11.73;7.63;;;;;;;;;;5016551;28;20042;-66
2022/08/31 12:06:31;;;;;;;9.25;7.43;;;;;;;;;;5017114;28;20119;-66
2022/08/31 12:09:20;;;;;;;10.00;7.32;;;;;;;;;;5033809;28;20057;-66
2022/08/31 12:12:09;;;;;;;11.23;7.85;;;;;;;;;;5017503;28;20088;-66
2022/08/31 12:14:50;;;;;;;9.32;7.70;;;;;;;;;;5033248;28;20088;-67
2022/08/31 12:17:59;;;;;;;8.38;7.47;;;;;;;;;;5001246;28;20049;-66
2022/08/31 12:20:31;;;;;;;10.90;7.47;;;;;;;;;;4970094;28;20045;-66
2022/08/31 12:26:34;;;;;;;10.15;7.47;;;;;;;;;;5018629;28;20060;-66
2022/08/31 12:29:06;;;;;;;9.55;6.68;;;;;;;;;;5017951;28;20054;-67
2022/08/31 12:31:34;;;;;;;8.32;6.55;;;;;;;;;;5033275;28;20060;-66
2022/08/31 12:34:07;;;;;;;10.07;6.30;;;;;;;;;;4999950;28;20045;-67
2022/08/31 12:36:35;;;;;;;9.13;6.22;;;;;;;;;;5017349;28;20059;-68
2022/08/31 12:39:12;;;;;;;10.60;5.90;;;;;;;;;;5034335;28;20431;-67
2022/08/31 12:41:46;;;;;;;7.40;6.13;;;;;;;;;;5034579;28;20053;-68
2022/08/31 12:44:21;;;;;;;11.18;6.05;;;;;;;;;;5001066;28;20041;-69
2022/08/31 12:47:04;;;;;;;7.68;6.28;;;;;;;;;;5016870;28;20049;-67
2022/08/31 12:49:40;;;;;;;11.75;6.57;;;;;;;;;;5015974;28;20592;-66
2022/08/31 12:52:12;;;;;;;7.82;5.15;;;;;;;;;;5037980;28;20056;-67
2022/08/31 12:54:42;;;;;;;8.65;5.53;;;;;;;;;;5015294;28;20084;-67
2022/08/31 12:57:27;;;;;;;7.70;5.15;;;;;;;;;;5032751;28;20401;-68
2022/08/31 13:00:09;;;;;;;6.70;5.43;;;;;;;;;;5032179;28;20464;-67
2022/08/31 13:02:41;;;;;;;7.22;5.75;;;;;;;;;;5032706;28;20128;-67
2022/08/31 13:05:27;;;;;;;9.55;4.82;;;;;;;;;;4999046;28;20477;-67
2022/08/31 13:07:54;;;;;;;7.20;4.82;;;;;;;;;;5032498;28;20045;-67
2022/08/31 13:10:21;;;;;;;8.48;5.05;;;;;;;;;;5032266;28;20505;-69
2022/08/31 13:12:59;;;;;;;5.43;4.40;;;;;;;;;;5032245;28;20119;-67
2022/08/31 13:15:31;;;;;;;6.63;5.00;;;;;;;;;;5032510;28;20050;-67
2022/08/31 13:18:14;;;;;;;5.72;4.65;;;;;;;;;;5032409;28;20060;-67
2022/08/31 13:20:45;;;;;;;6.00;4.20;;;;;;;;;;5032590;28;20050;-67
2022/08/31 13:23:21;;;;;;;6.22;4.35;;;;;;;;;;5015619;28;20045;-67
2022/08/31 13:26:08;;;;;;;6.47;4.55;;;;;;;;;;5016296;28;20061;-68
2022/08/31 13:28:35;;;;;;;6.57;3.80;;;;;;;;;;5032359;28;20049;-67
2022/08/31 13:31:04;;;;;;;4.82;4.32;;;;;;;;;;5032296;28;20061;-68
2022/08/31 13:33:38;;;;;;;6.50;4.18;;;;;;;;;;5014738;28;20123;-66
2022/08/31 13:36:08;;;;;;;5.75;3.78;;;;;;;;;;4999416;28;20085;-67
2022/08/31 13:38:42;;;;;;;4.85;4.45;;;;;;;;;;5014950;28;20057;-68
2022/08/31 13:41:21;;;;;;;7.28;4.30;;;;;;;;;;5032462;28;20056;-67
2022/08/31 13:43:56;;;;;;;5.38;4.10;;;;;;;;;;4999640;28;20460;-69
2022/08/31 13:46:33;;;;;;;4.60;4.20;;;;;;;;;;5015917;28;20060;-67
2022/08/31 13:49:31;;;;;;;9.00;4.05;;;;;;;;;;5002078;28;20049;-67
2022/08/31 13:51:57;;;;;;;4.90;3.90;;;;;;;;;;5015137;28;20588;-66
2022/08/31 13:54:28;;;;;;;4.20;3.72;;;;;;;;;;4998208;28;20092;-67
2022/08/31 13:56:55;;;;;;;4.90;3.30;;;;;;;;;;5014573;28;20072;-67
2022/08/31 13:59:25;;;;;;;4.80;3.35;;;;;;;;;;5035755;28;20061;-67
2022/08/31 14:02:24;;;;;;;4.53;3.30;;;;;;;;;;5036220;28;20111;-67
2022/08/31 14:05:04;;;;;;;5.35;3.60;;;;;;;;;;5036162;28;20076;-68
2022/08/31 14:07:45;;;;;;;6.47;4.28;;;;;;;;;;5018170;28;20060;-67
2022/08/31 14:10:14;;;;;;;5.57;3.17;;;;;;;;;;5035527;28;20064;-66
2022/08/31 14:12:50;;;;;;;3.88;3.58;;;;;;;;;;5035927;28;20068;-66
2022/08/31 14:15:26;;;;;;;5.28;3.60;;;;;;;;;;5018193;28;20046;-66
2022/08/31 14:17:57;;;;;;;4.95;3.72;;;;;;;;;;5018576;28;20056;-66
2022/08/31 14:21:05;;;;;;;4.28;3.22;;;;;;;;;;5021114;28;20053;-66
2022/08/31 14:24:00;;;;;;;3.70;3.40;;;;;;;;;;5035612;28;20133;-67
2022/08/31 14:26:40;;;;;;;7.03;4.07;;;;;;;;;;5036757;28;20061;-68
2022/08/31 14:29:13;;;;;;;4.25;3.85;;;;;;;;;;5036150;28;20089;-68
2022/08/31 14:31:44;;;;;;;4.95;3.97;;;;;;;;;;5036289;28;20049;-67
2022/08/31 14:34:27;;;;;;;4.93;3.75;;;;;;;;;;5018677;28;20475;-67
2022/08/31 14:37:06;;;;;;;3.42;3.05;;;;;;;;;;5035608;28;20509;-67
2022/08/31 14:39:37;;;;;;;3.97;3.58;;;;;;;;;;5035353;28;20072;-66
2022/08/31 14:42:10;;;;;;;6.13;4.28;;;;;;;;;;5035149;28;20050;-66
2022/08/31 14:44:38;;;;;;;3.72;3.33;;;;;;;;;;5035262;28;20049;-66
2022/08/31 14:47:08;;;;;;;4.28;3.88;;;;;;;;;;5034960;28;20050;-68
2022/08/31 14:49:35;;;;;;;4.53;3.83;;;;;;;;;;5034903;28;20054;-66
2022/08/31 14:52:05;;;;;;;4.18;3.47;;;;;;;;;;5035101;28;20128;-66
2022/08/31 14:54:36;;;;;;;6.55;3.55;;;;;;;;;;5034862;28;20045;-66
2022/08/31 14:57:17;;;;;;;6.07;4.25;;;;;;;;;;5034824;28;20136;-66
2022/08/31 14:59:45;;;;;;;4.32;3.65;;;;;;;;;;5017077;28;20050;-66
2022/08/31 15:02:19;;;;;;;5.18;3.33;;;;;;;;;;5035066;28;20053;-65
2022/08/31 15:04:47;;;;;;;5.43;3.50;;;;;;;;;;5034840;28;20087;-65
2022/08/31 15:07:15;;;;;;;5.90;4.13;;;;;;;;;;5035014;28;20049;-67
2022/08/31 15:09:42;;;;;;;5.50;4.35;;;;;;;;;;5034053;28;20072;-66
2022/08/31 15:12:10;;;;;;;6.35;4.65;;;;;;;;;;5000793;28;20053;-66
2022/08/31 15:14:41;;;;;;;5.18;4.68;;;;;;;;;;5034329;28;20513;-66
2022/08/31 15:17:11;;;;;;;10.77;4.97;;;;;;;;;;5034573;28;20087;-66
2022/08/31 15:19:44;;;;;;;7.13;5.97;;;;;;;;;;5035100;28;20081;-68
2022/08/31 15:22:11;;;;;;;8.18;5.82;;;;;;;;;;5034570;28;20516;-68
2022/08/31 15:24:44;;;;;;;8.00;5.30;;;;;;;;;;5034428;28;20049;-67
2022/08/31 15:27:11;;;;;;;;;;;;;;;;;;5035117;28;20049;-69
2022/08/31 15:29:39;;;;;;;5.70;4.13;;;;;;;;;;5016763;28;20148;-69
2022/08/31 15:32:08;;;;;;;8.52;4.43;;;;;;;;;;5035144;28;20049;-68
2022/08/31 15:34:36;;;;;;;3.97;3.10;;;;;;;;;;5035248;28;20512;-68
2022/08/31 15:37:06;;;;;;;5.93;4.15;;;;;;;;;;5034089;28;20049;-69